sensor_id;sensor_type;location;lat;lon;timestamp;temperature;humidity
51853;DHT22;37894;53.172;6.598;2023-03-20T00:00:57;7.40;99.90
51853;DHT22;37894;53.172;6.598;2023-03-20T00:03:23;7.70;99.90
51853;DHT22;37894;53.172;6.598;2023-03-20T00:08:16;7.40;99.90
51853;DHT22;37894;53.172;6.598;2023-03-20T00:10:44;7.70;99.90
51853;DHT22;37894;53.172;6.598;2023-03-20T00:13:14;6.60;99.90
51853;DHT22;37894;53.172;6.598;2023-03-20T00:15:43;7.40;99.90
51853;DHT22;37894;53.172;6.598;2023-03-20T00:18:17;7.40;99.90
51853;DHT22;37894;53.172;6.598;2023-03-20T00:20:48;7.40;99.90
51853;DHT22;37894;53.172;6.598;2023-03-20T00:23:16;7.90;99.90
51853;DHT22;37894;53.172;6.598;2023-03-20T00:25:44;7.40;99.90
51853;DHT22;37894;53.172;6.598;2023-03-20T00:28:31;7.60;99.90
51853;DHT22;37894;53.172;6.598;2023-03-20T00:38:24;7.60;99.90
51853;DHT22;37894;53.172;6.598;2023-03-20T00:40:50;8.00;99.90
51853;DHT22;37894;53.172;6.598;2023-03-20T00:43:17;6.50;99.90
51853;DHT22;37894;53.172;6.598;2023-03-20T00:45:44;7.40;99.90
51853;DHT22;37894;53.172;6.598;2023-03-20T00:48:13;8.30;99.90
51853;DHT22;37894;53.172;6.598;2023-03-20T00:50:40;7.10;99.90
51853;DHT22;37894;53.172;6.598;2023-03-20T00:53:09;7.40;99.90
51853;DHT22;37894;53.172;6.598;2023-03-20T00:55:36;7.00;99.90
51853;DHT22;37894;53.172;6.598;2023-03-20T00:58:04;7.40;99.90
51853;DHT22;37894;53.172;6.598;2023-03-20T01:00:41;8.40;99.90
51853;DHT22;37894;53.172;6.598;2023-03-20T01:05:39;8.40;99.90
51853;DHT22;37894;53.172;6.598;2023-03-20T01:08:13;7.30;99.90
51853;DHT22;37894;53.172;6.598;2023-03-20T01:10:40;7.30;99.90
51853;DHT22;37894;53.172;6.598;2023-03-20T01:13:19;6.80;99.90
51853;DHT22;37894;53.172;6.598;2023-03-20T01:15:46;7.30;99.90
51853;DHT22;37894;53.172;6.598;2023-03-20T01:18:14;7.50;99.90
51853;DHT22;37894;53.172;6.598;2023-03-20T01:20:41;7.60;99.90
51853;DHT22;37894;53.172;6.598;2023-03-20T01:23:07;6.80;99.90
51853;DHT22;37894;53.172;6.598;2023-03-20T01:27:59;6.50;99.90
51853;DHT22;37894;53.172;6.598;2023-03-20T01:30:30;6.50;99.90
51853;DHT22;37894;53.172;6.598;2023-03-20T01:32:57;7.20;99.90
51853;DHT22;37894;53.172;6.598;2023-03-20T01:35:25;7.30;99.90
51853;DHT22;37894;53.172;6.598;2023-03-20T01:37:52;7.20;99.90
51853;DHT22;37894;53.172;6.598;2023-03-20T01:40:39;7.10;99.90
51853;DHT22;37894;53.172;6.598;2023-03-20T01:43:19;7.90;99.90
51853;DHT22;37894;53.172;6.598;2023-03-20T01:46:02;7.20;99.90
51853;DHT22;37894;53.172;6.598;2023-03-20T01:51:27;8.10;99.90
51853;DHT22;37894;53.172;6.598;2023-03-20T01:54:01;8.00;99.90
51853;DHT22;37894;53.172;6.598;2023-03-20T01:56:30;7.40;99.90
51853;DHT22;37894;53.172;6.598;2023-03-20T01:59:13;7.60;99.90
51853;DHT22;37894;53.172;6.598;2023-03-20T02:01:41;7.60;99.90
51853;DHT22;37894;53.172;6.598;2023-03-20T02:04:09;7.30;99.90
51853;DHT22;37894;53.172;6.598;2023-03-20T02:06:36;7.30;99.90
51853;DHT22;37894;53.172;6.598;2023-03-20T02:13:57;7.40;99.90
51853;DHT22;37894;53.172;6.598;2023-03-20T02:16:23;6.90;99.90
51853;DHT22;37894;53.172;6.598;2023-03-20T02:18:51;7.40;99.90
51853;DHT22;37894;53.172;6.598;2023-03-20T02:32:31;7.10;99.90
51853;DHT22;37894;53.172;6.598;2023-03-20T02:38:03;7.30;99.90
51853;DHT22;37894;53.172;6.598;2023-03-20T02:48:29;7.40;99.90
51853;DHT22;37894;53.172;6.598;2023-03-20T02:51:07;7.40;99.90
51853;DHT22;37894;53.172;6.598;2023-03-20T02:53:51;7.40;99.90
51853;DHT22;37894;53.172;6.598;2023-03-20T02:56:30;7.50;99.90
51853;DHT22;37894;53.172;6.598;2023-03-20T03:01:38;7.40;99.90
51853;DHT22;37894;53.172;6.598;2023-03-20T03:04:17;8.00;99.90
51853;DHT22;37894;53.172;6.598;2023-03-20T03:06:45;7.60;99.90
51853;DHT22;37894;53.172;6.598;2023-03-20T03:09:23;7.50;99.90
51853;DHT22;37894;53.172;6.598;2023-03-20T03:12:01;7.60;99.90
51853;DHT22;37894;53.172;6.598;2023-03-20T03:14:45;7.70;99.90
51853;DHT22;37894;53.172;6.598;2023-03-20T03:17:12;7.30;99.90
51853;DHT22;37894;53.172;6.598;2023-03-20T03:19:41;7.30;99.90
51853;DHT22;37894;53.172;6.598;2023-03-20T03:22:08;7.60;99.90
51853;DHT22;37894;53.172;6.598;2023-03-20T03:24:36;7.50;99.90
51853;DHT22;37894;53.172;6.598;2023-03-20T03:27:30;7.60;99.90
51853;DHT22;37894;53.172;6.598;2023-03-20T03:30:02;7.50;99.90
51853;DHT22;37894;53.172;6.598;2023-03-20T03:32:32;7.50;99.90
51853;DHT22;37894;53.172;6.598;2023-03-20T03:34:59;7.60;99.90
51853;DHT22;37894;53.172;6.598;2023-03-20T03:40:44;8.40;99.90
51853;DHT22;37894;53.172;6.598;2023-03-20T03:43:30;7.50;99.90
51853;DHT22;37894;53.172;6.598;2023-03-20T03:46:01;8.00;99.90
51853;DHT22;37894;53.172;6.598;2023-03-20T03:48:33;8.60;99.90
51853;DHT22;37894;53.172;6.598;2023-03-20T03:51:06;7.40;99.90
51853;DHT22;37894;53.172;6.598;2023-03-20T03:53:37;7.50;99.90
51853;DHT22;37894;53.172;6.598;2023-03-20T03:56:05;7.00;99.90
51853;DHT22;37894;53.172;6.598;2023-03-20T04:01:03;7.30;99.90
51853;DHT22;37894;53.172;6.598;2023-03-20T04:03:38;7.50;99.90
51853;DHT22;37894;53.172;6.598;2023-03-20T04:06:05;7.50;99.90
51853;DHT22;37894;53.172;6.598;2023-03-20T04:08:32;8.40;99.90
51853;DHT22;37894;53.172;6.598;2023-03-20T04:10:58;7.40;99.90
51853;DHT22;37894;53.172;6.598;2023-03-20T04:13:24;7.80;99.90
51853;DHT22;37894;53.172;6.598;2023-03-20T04:15:49;7.80;99.90
51853;DHT22;37894;53.172;6.598;2023-03-20T04:18:17;7.60;99.90
51853;DHT22;37894;53.172;6.598;2023-03-20T04:20:47;7.60;99.90
51853;DHT22;37894;53.172;6.598;2023-03-20T04:23:14;7.60;99.90
51853;DHT22;37894;53.172;6.598;2023-03-20T04:25:40;7.10;99.90
51853;DHT22;37894;53.172;6.598;2023-03-20T04:28:06;8.20;99.90
51853;DHT22;37894;53.172;6.598;2023-03-20T04:30:32;7.70;99.90
51853;DHT22;37894;53.172;6.598;2023-03-20T04:32:57;7.00;99.90
51853;DHT22;37894;53.172;6.598;2023-03-20T04:35:23;7.70;99.90
51853;DHT22;37894;53.172;6.598;2023-03-20T04:40:15;7.80;99.90
51853;DHT22;37894;53.172;6.598;2023-03-20T04:42:41;7.70;99.90
51853;DHT22;37894;53.172;6.598;2023-03-20T04:45:08;8.30;99.90
51853;DHT22;37894;53.172;6.598;2023-03-20T04:47:34;7.70;99.90
51853;DHT22;37894;53.172;6.598;2023-03-20T04:49:59;8.00;99.90
51853;DHT22;37894;53.172;6.598;2023-03-20T04:52:25;7.60;99.90
51853;DHT22;37894;53.172;6.598;2023-03-20T04:54:51;7.50;99.90
51853;DHT22;37894;53.172;6.598;2023-03-20T04:57:16;7.60;99.90
51853;DHT22;37894;53.172;6.598;2023-03-20T04:59:42;7.70;99.90
51853;DHT22;37894;53.172;6.598;2023-03-20T05:04:40;8.10;99.90
51853;DHT22;37894;53.172;6.598;2023-03-20T05:11:57;7.90;99.90
51853;DHT22;37894;53.172;6.598;2023-03-20T05:14:23;7.70;99.90
51853;DHT22;37894;53.172;6.598;2023-03-20T05:19:17;7.60;99.90
51853;DHT22;37894;53.172;6.598;2023-03-20T05:21:43;7.70;99.90
51853;DHT22;37894;53.172;6.598;2023-03-20T05:24:09;7.60;99.90
51853;DHT22;37894;53.172;6.598;2023-03-20T05:26:34;7.50;99.90
51853;DHT22;37894;53.172;6.598;2023-03-20T05:31:26;7.70;99.90
51853;DHT22;37894;53.172;6.598;2023-03-20T05:33:52;7.70;99.90
51853;DHT22;37894;53.172;6.598;2023-03-20T05:36:18;7.90;99.90
51853;DHT22;37894;53.172;6.598;2023-03-20T05:38:43;8.30;99.90
51853;DHT22;37894;53.172;6.598;2023-03-20T05:41:09;7.50;99.90
51853;DHT22;37894;53.172;6.598;2023-03-20T05:43:35;7.60;99.90
51853;DHT22;37894;53.172;6.598;2023-03-20T05:46:00;7.40;99.90
51853;DHT22;37894;53.172;6.598;2023-03-20T05:48:26;8.20;99.90
51853;DHT22;37894;53.172;6.598;2023-03-20T05:53:18;7.80;99.90
51853;DHT22;37894;53.172;6.598;2023-03-20T05:55:44;7.40;99.90
51853;DHT22;37894;53.172;6.598;2023-03-20T05:58:10;7.70;99.90
51853;DHT22;37894;53.172;6.598;2023-03-20T06:00:37;7.50;99.90
51853;DHT22;37894;53.172;6.598;2023-03-20T06:03:03;7.80;99.90
51853;DHT22;37894;53.172;6.598;2023-03-20T06:05:28;8.20;99.90
51853;DHT22;37894;53.172;6.598;2023-03-20T06:07:54;7.70;99.90
51853;DHT22;37894;53.172;6.598;2023-03-20T06:10:20;8.10;99.90
51853;DHT22;37894;53.172;6.598;2023-03-20T06:12:46;8.30;99.90
51853;DHT22;37894;53.172;6.598;2023-03-20T06:15:12;7.00;99.90
51853;DHT22;37894;53.172;6.598;2023-03-20T06:17:37;7.80;99.90
51853;DHT22;37894;53.172;6.598;2023-03-20T06:20:04;7.70;99.90
51853;DHT22;37894;53.172;6.598;2023-03-20T06:27:22;8.00;99.90
51853;DHT22;37894;53.172;6.598;2023-03-20T06:32:14;7.60;99.90
51853;DHT22;37894;53.172;6.598;2023-03-20T06:34:41;7.90;99.90
51853;DHT22;37894;53.172;6.598;2023-03-20T06:41:59;7.80;99.90
51853;DHT22;37894;53.172;6.598;2023-03-20T06:49:17;7.90;99.90
51853;DHT22;37894;53.172;6.598;2023-03-20T06:54:12;7.70;99.90
51853;DHT22;37894;53.172;6.598;2023-03-20T06:56:37;7.80;99.90
51853;DHT22;37894;53.172;6.598;2023-03-20T06:59:03;7.70;99.90
51853;DHT22;37894;53.172;6.598;2023-03-20T07:01:30;7.70;99.90
51853;DHT22;37894;53.172;6.598;2023-03-20T07:03:56;7.10;99.90
51853;DHT22;37894;53.172;6.598;2023-03-20T07:06:22;7.70;99.90
51853;DHT22;37894;53.172;6.598;2023-03-20T07:08:47;8.20;99.90
51853;DHT22;37894;53.172;6.598;2023-03-20T07:16:06;7.90;99.90
51853;DHT22;37894;53.172;6.598;2023-03-20T07:18:32;8.90;99.90
51853;DHT22;37894;53.172;6.598;2023-03-20T07:21:03;8.30;99.90
51853;DHT22;37894;53.172;6.598;2023-03-20T07:23:30;9.00;99.90
51853;DHT22;37894;53.172;6.598;2023-03-20T07:25:56;8.10;99.90
51853;DHT22;37894;53.172;6.598;2023-03-20T07:28:23;8.30;99.90
51853;DHT22;37894;53.172;6.598;2023-03-20T07:30:49;8.60;99.90
51853;DHT22;37894;53.172;6.598;2023-03-20T07:35:41;9.30;99.90
51853;DHT22;37894;53.172;6.598;2023-03-20T07:45:25;8.70;99.90
51853;DHT22;37894;53.172;6.598;2023-03-20T07:50:17;8.80;99.90
51853;DHT22;37894;53.172;6.598;2023-03-20T07:52:47;8.40;99.90
51853;DHT22;37894;53.172;6.598;2023-03-20T07:55:14;8.70;99.90
51853;DHT22;37894;53.172;6.598;2023-03-20T07:57:41;8.40;99.90
51853;DHT22;37894;53.172;6.598;2023-03-20T08:00:07;8.20;99.90
51853;DHT22;37894;53.172;6.598;2023-03-20T08:02:33;9.90;99.90
51853;DHT22;37894;53.172;6.598;2023-03-20T08:04:59;8.70;99.90
51853;DHT22;37894;53.172;6.598;2023-03-20T08:07:25;9.00;99.90
51853;DHT22;37894;53.172;6.598;2023-03-20T08:14:43;9.00;99.90
51853;DHT22;37894;53.172;6.598;2023-03-20T08:17:09;9.00;99.90
51853;DHT22;37894;53.172;6.598;2023-03-20T08:19:35;9.30;99.90
51853;DHT22;37894;53.172;6.598;2023-03-20T08:22:01;9.00;99.90
51853;DHT22;37894;53.172;6.598;2023-03-20T08:26:53;9.20;99.90
51853;DHT22;37894;53.172;6.598;2023-03-20T08:31:45;8.90;99.90
51853;DHT22;37894;53.172;6.598;2023-03-20T08:34:11;8.90;99.90
51853;DHT22;37894;53.172;6.598;2023-03-20T08:36:36;8.90;99.90
51853;DHT22;37894;53.172;6.598;2023-03-20T08:39:04;8.30;99.90
51853;DHT22;37894;53.172;6.598;2023-03-20T08:41:31;9.10;99.90
51853;DHT22;37894;53.172;6.598;2023-03-20T08:43:57;9.10;99.90
51853;DHT22;37894;53.172;6.598;2023-03-20T08:48:50;9.10;99.90
51853;DHT22;37894;53.172;6.598;2023-03-20T08:56:08;9.30;99.90
51853;DHT22;37894;53.172;6.598;2023-03-20T08:58:34;9.60;99.90
51853;DHT22;37894;53.172;6.598;2023-03-20T09:01:05;9.40;99.90
51853;DHT22;37894;53.172;6.598;2023-03-20T09:10:49;9.40;99.90
51853;DHT22;37894;53.172;6.598;2023-03-20T09:13:15;9.50;99.90
51853;DHT22;37894;53.172;6.598;2023-03-20T09:15:41;9.20;99.90
51853;DHT22;37894;53.172;6.598;2023-03-20T09:22:59;10.20;99.90
51853;DHT22;37894;53.172;6.598;2023-03-20T09:25:25;9.90;99.90
51853;DHT22;37894;53.172;6.598;2023-03-20T09:27:53;9.60;99.90
51853;DHT22;37894;53.172;6.598;2023-03-20T09:30:21;10.80;99.90
51853;DHT22;37894;53.172;6.598;2023-03-20T09:35:17;10.10;99.90
51853;DHT22;37894;53.172;6.598;2023-03-20T09:37:44;10.10;99.90
51853;DHT22;37894;53.172;6.598;2023-03-20T09:43:18;9.90;99.90
51853;DHT22;37894;53.172;6.598;2023-03-20T09:46:06;10.20;99.90
51853;DHT22;37894;53.172;6.598;2023-03-20T09:48:44;9.90;99.90
51853;DHT22;37894;53.172;6.598;2023-03-20T09:53:50;10.40;99.90
51853;DHT22;37894;53.172;6.598;2023-03-20T09:56:25;10.40;99.90
51853;DHT22;37894;53.172;6.598;2023-03-20T09:58:57;10.40;99.90
51853;DHT22;37894;53.172;6.598;2023-03-20T10:01:30;10.70;99.90
51853;DHT22;37894;53.172;6.598;2023-03-20T10:03:59;10.50;99.90
51853;DHT22;37894;53.172;6.598;2023-03-20T10:08:52;10.60;99.90
51853;DHT22;37894;53.172;6.598;2023-03-20T10:20:13;10.90;99.90
51853;DHT22;37894;53.172;6.598;2023-03-20T10:22:48;11.50;99.90
51853;DHT22;37894;53.172;6.598;2023-03-20T10:27:58;11.20;99.90
51853;DHT22;37894;53.172;6.598;2023-03-20T10:30:36;11.20;99.90
51853;DHT22;37894;53.172;6.598;2023-03-20T10:38:54;10.60;99.90
51853;DHT22;37894;53.172;6.598;2023-03-20T10:41:26;10.70;99.90
51853;DHT22;37894;53.172;6.598;2023-03-20T10:43:55;10.90;99.90
51853;DHT22;37894;53.172;6.598;2023-03-20T10:46:54;10.90;99.90
51853;DHT22;37894;53.172;6.598;2023-03-20T10:49:48;10.90;99.90
51853;DHT22;37894;53.172;6.598;2023-03-20T10:52:20;10.80;99.90
51853;DHT22;37894;53.172;6.598;2023-03-20T10:54:51;11.70;99.90
51853;DHT22;37894;53.172;6.598;2023-03-20T10:57:26;11.00;99.90
51853;DHT22;37894;53.172;6.598;2023-03-20T10:59:55;10.70;99.90
51853;DHT22;37894;53.172;6.598;2023-03-20T11:02:26;10.80;99.90
51853;DHT22;37894;53.172;6.598;2023-03-20T11:04:52;10.80;99.90
51853;DHT22;37894;53.172;6.598;2023-03-20T11:07:34;11.60;99.90
51853;DHT22;37894;53.172;6.598;2023-03-20T11:12:45;11.10;99.90
51853;DHT22;37894;53.172;6.598;2023-03-20T11:15:20;10.80;99.90
51853;DHT22;37894;53.172;6.598;2023-03-20T11:17:54;10.80;99.90
51853;DHT22;37894;53.172;6.598;2023-03-20T11:20:21;9.90;99.90
51853;DHT22;37894;53.172;6.598;2023-03-20T11:22:49;10.70;99.90
51853;DHT22;37894;53.172;6.598;2023-03-20T11:27:56;10.70;99.90
51853;DHT22;37894;53.172;6.598;2023-03-20T11:30:22;10.70;99.90
51853;DHT22;37894;53.172;6.598;2023-03-20T11:32:54;10.90;99.90
51853;DHT22;37894;53.172;6.598;2023-03-20T11:37:54;10.60;99.90
51853;DHT22;37894;53.172;6.598;2023-03-20T11:40:31;10.50;99.90
51853;DHT22;37894;53.172;6.598;2023-03-20T11:45:33;11.20;99.90
51853;DHT22;37894;53.172;6.598;2023-03-20T11:48:00;10.60;99.90
51853;DHT22;37894;53.172;6.598;2023-03-20T11:50:43;10.40;99.90
51853;DHT22;37894;53.172;6.598;2023-03-20T11:53:23;10.40;99.90
51853;DHT22;37894;53.172;6.598;2023-03-20T11:56:11;10.60;99.90
51853;DHT22;37894;53.172;6.598;2023-03-20T11:58:59;10.60;99.90
51853;DHT22;37894;53.172;6.598;2023-03-20T12:01:29;10.40;99.90
51853;DHT22;37894;53.172;6.598;2023-03-20T12:04:04;9.90;99.90
51853;DHT22;37894;53.172;6.598;2023-03-20T12:09:36;10.20;99.90
51853;DHT22;37894;53.172;6.598;2023-03-20T12:14:51;10.20;99.90
51853;DHT22;37894;53.172;6.598;2023-03-20T12:23:11;10.10;99.90
51853;DHT22;37894;53.172;6.598;2023-03-20T12:31:41;10.10;99.90
51853;DHT22;37894;53.172;6.598;2023-03-20T12:36:49;10.00;99.90
51853;DHT22;37894;53.172;6.598;2023-03-20T12:39:22;9.80;99.90
51853;DHT22;37894;53.172;6.598;2023-03-20T12:44:53;9.80;99.90
51853;DHT22;37894;53.172;6.598;2023-03-20T12:55:50;9.40;99.90
51853;DHT22;37894;53.172;6.598;2023-03-20T12:58:40;9.40;99.90
51853;DHT22;37894;53.172;6.598;2023-03-20T13:01:30;9.90;99.90
51853;DHT22;37894;53.172;6.598;2023-03-20T13:07:21;9.40;99.90
51853;DHT22;37894;53.172;6.598;2023-03-20T13:17:57;9.40;99.90
51853;DHT22;37894;53.172;6.598;2023-03-20T13:20:33;9.50;99.90
51853;DHT22;37894;53.172;6.598;2023-03-20T13:29:18;9.00;99.90
51853;DHT22;37894;53.172;6.598;2023-03-20T13:34:50;9.20;99.90
51853;DHT22;37894;53.172;6.598;2023-03-20T13:37:22;9.60;99.90
51853;DHT22;37894;53.172;6.598;2023-03-20T13:42:46;8.90;99.90
51853;DHT22;37894;53.172;6.598;2023-03-20T13:45:26;7.90;99.90
51853;DHT22;37894;53.172;6.598;2023-03-20T13:47:53;8.90;99.90
51853;DHT22;37894;53.172;6.598;2023-03-20T13:50:43;9.60;99.90
51853;DHT22;37894;53.172;6.598;2023-03-20T14:01:48;9.60;99.90
51853;DHT22;37894;53.172;6.598;2023-03-20T14:04:19;8.50;99.90
51853;DHT22;37894;53.172;6.598;2023-03-20T14:06:54;7.90;99.90
51853;DHT22;37894;53.172;6.598;2023-03-20T14:12:12;9.40;99.90
51853;DHT22;37894;53.172;6.598;2023-03-20T14:14:45;8.40;99.90
51853;DHT22;37894;53.172;6.598;2023-03-20T14:17:19;8.60;99.90
51853;DHT22;37894;53.172;6.598;2023-03-20T14:19:48;8.50;99.90
51853;DHT22;37894;53.172;6.598;2023-03-20T14:22:32;8.20;99.90
51853;DHT22;37894;53.172;6.598;2023-03-20T14:25:16;8.20;99.90
51853;DHT22;37894;53.172;6.598;2023-03-20T14:30:41;8.10;99.90
51853;DHT22;37894;53.172;6.598;2023-03-20T14:33:24;7.70;99.90
51853;DHT22;37894;53.172;6.598;2023-03-20T14:36:20;8.20;99.90
51853;DHT22;37894;53.172;6.598;2023-03-20T14:47:37;8.30;99.90
51853;DHT22;37894;53.172;6.598;2023-03-20T14:50:02;8.10;99.90
51853;DHT22;37894;53.172;6.598;2023-03-20T14:55:33;9.10;99.90
51853;DHT22;37894;53.172;6.598;2023-03-20T14:58:04;7.80;99.90
51853;DHT22;37894;53.172;6.598;2023-03-20T15:03:16;8.10;99.90
51853;DHT22;37894;53.172;6.598;2023-03-20T15:05:44;8.10;99.90
51853;DHT22;37894;53.172;6.598;2023-03-20T15:08:21;8.20;99.90
51853;DHT22;37894;53.172;6.598;2023-03-20T15:10:51;8.40;99.90
51853;DHT22;37894;53.172;6.598;2023-03-20T15:15:56;7.90;99.90
51853;DHT22;37894;53.172;6.598;2023-03-20T15:18:25;8.20;99.90
51853;DHT22;37894;53.172;6.598;2023-03-20T15:25:45;8.10;99.90
51853;DHT22;37894;53.172;6.598;2023-03-20T15:28:18;8.20;99.90
51853;DHT22;37894;53.172;6.598;2023-03-20T15:30:45;8.20;99.90
51853;DHT22;37894;53.172;6.598;2023-03-20T15:33:23;8.10;99.90
51853;DHT22;37894;53.172;6.598;2023-03-20T15:35:50;8.30;99.90
51853;DHT22;37894;53.172;6.598;2023-03-20T15:38:17;8.00;99.90
51853;DHT22;37894;53.172;6.598;2023-03-20T15:40:44;8.50;99.90
51853;DHT22;37894;53.172;6.598;2023-03-20T15:43:22;8.40;99.90
51853;DHT22;37894;53.172;6.598;2023-03-20T15:45:48;8.70;99.90
51853;DHT22;37894;53.172;6.598;2023-03-20T15:48:20;8.20;99.90
51853;DHT22;37894;53.172;6.598;2023-03-20T15:50:52;8.10;99.90
51853;DHT22;37894;53.172;6.598;2023-03-20T15:53:28;8.50;99.90
51853;DHT22;37894;53.172;6.598;2023-03-20T15:56:06;8.40;99.90
51853;DHT22;37894;53.172;6.598;2023-03-20T15:58:33;8.30;99.90
51853;DHT22;37894;53.172;6.598;2023-03-20T16:01:00;8.70;99.90
51853;DHT22;37894;53.172;6.598;2023-03-20T16:03:27;9.00;99.90
51853;DHT22;37894;53.172;6.598;2023-03-20T16:05:54;8.40;99.90
51853;DHT22;37894;53.172;6.598;2023-03-20T16:08:31;8.40;99.90
51853;DHT22;37894;53.172;6.598;2023-03-20T16:11:05;8.50;99.90
51853;DHT22;37894;53.172;6.598;2023-03-20T16:13:38;8.60;99.90
51853;DHT22;37894;53.172;6.598;2023-03-20T16:16:07;8.30;99.90
51853;DHT22;37894;53.172;6.598;2023-03-20T16:18:37;8.40;99.90
51853;DHT22;37894;53.172;6.598;2023-03-20T16:21:25;8.60;99.90
51853;DHT22;37894;53.172;6.598;2023-03-20T16:23:54;8.30;99.90
51853;DHT22;37894;53.172;6.598;2023-03-20T16:26:22;8.40;99.90
51853;DHT22;37894;53.172;6.598;2023-03-20T16:28:49;8.40;99.90
51853;DHT22;37894;53.172;6.598;2023-03-20T16:31:29;8.20;99.90
51853;DHT22;37894;53.172;6.598;2023-03-20T16:34:04;8.60;99.90
51853;DHT22;37894;53.172;6.598;2023-03-20T16:36:33;8.10;99.90
51853;DHT22;37894;53.172;6.598;2023-03-20T16:39:17;8.10;99.90
51853;DHT22;37894;53.172;6.598;2023-03-20T16:41:44;8.50;99.90
51853;DHT22;37894;53.172;6.598;2023-03-20T16:44:16;7.70;99.90
51853;DHT22;37894;53.172;6.598;2023-03-20T16:46:55;8.30;99.90
51853;DHT22;37894;53.172;6.598;2023-03-20T16:52:12;8.80;99.90
51853;DHT22;37894;53.172;6.598;2023-03-20T16:54:39;8.30;99.90
51853;DHT22;37894;53.172;6.598;2023-03-20T16:57:16;8.30;99.90
51853;DHT22;37894;53.172;6.598;2023-03-20T17:02:29;8.20;99.90
51853;DHT22;37894;53.172;6.598;2023-03-20T17:05:02;8.20;99.90
51853;DHT22;37894;53.172;6.598;2023-03-20T17:07:28;8.20;99.90
51853;DHT22;37894;53.172;6.598;2023-03-20T17:12:31;8.20;99.90
51853;DHT22;37894;53.172;6.598;2023-03-20T17:14:57;8.30;99.90
51853;DHT22;37894;53.172;6.598;2023-03-20T17:17:23;8.50;99.90
51853;DHT22;37894;53.172;6.598;2023-03-20T17:19:50;8.20;99.90
51853;DHT22;37894;53.172;6.598;2023-03-20T17:22:21;8.30;99.90
51853;DHT22;37894;53.172;6.598;2023-03-20T17:24:48;8.50;99.90
51853;DHT22;37894;53.172;6.598;2023-03-20T17:27:15;9.30;99.90
51853;DHT22;37894;53.172;6.598;2023-03-20T17:29:41;8.30;99.90
51853;DHT22;37894;53.172;6.598;2023-03-20T17:32:15;8.50;99.90
51853;DHT22;37894;53.172;6.598;2023-03-20T17:34:41;8.60;99.90
51853;DHT22;37894;53.172;6.598;2023-03-20T17:37:12;8.00;99.90
51853;DHT22;37894;53.172;6.598;2023-03-20T17:39:39;8.50;99.90
51853;DHT22;37894;53.172;6.598;2023-03-20T17:42:18;8.10;99.90
51853;DHT22;37894;53.172;6.598;2023-03-20T17:44:45;9.20;99.90
51853;DHT22;37894;53.172;6.598;2023-03-20T17:47:20;7.80;99.90
51853;DHT22;37894;53.172;6.598;2023-03-20T17:49:46;7.60;99.90
51853;DHT22;37894;53.172;6.598;2023-03-20T17:52:17;8.30;99.90
51853;DHT22;37894;53.172;6.598;2023-03-20T17:54:44;8.50;99.90
51853;DHT22;37894;53.172;6.598;2023-03-20T17:59:45;8.60;99.90
51853;DHT22;37894;53.172;6.598;2023-03-20T18:02:10;8.30;99.90
51853;DHT22;37894;53.172;6.598;2023-03-20T18:04:36;8.30;99.90
51853;DHT22;37894;53.172;6.598;2023-03-20T18:07:02;8.70;99.90
51853;DHT22;37894;53.172;6.598;2023-03-20T18:11:55;8.50;99.90
51853;DHT22;37894;53.172;6.598;2023-03-20T18:14:21;8.50;99.90
51853;DHT22;37894;53.172;6.598;2023-03-20T18:16:47;8.20;99.90
51853;DHT22;37894;53.172;6.598;2023-03-20T18:19:31;9.00;99.90
51853;DHT22;37894;53.172;6.598;2023-03-20T18:21:58;8.40;99.90
51853;DHT22;37894;53.172;6.598;2023-03-20T18:24:24;8.30;99.90
51853;DHT22;37894;53.172;6.598;2023-03-20T18:26:51;8.20;99.90
51853;DHT22;37894;53.172;6.598;2023-03-20T18:29:17;8.60;99.90
51853;DHT22;37894;53.172;6.598;2023-03-20T18:31:43;8.80;99.90
51853;DHT22;37894;53.172;6.598;2023-03-20T18:34:09;8.80;99.90
51853;DHT22;37894;53.172;6.598;2023-03-20T18:36:35;8.10;99.90
51853;DHT22;37894;53.172;6.598;2023-03-20T18:39:01;8.90;99.90
51853;DHT22;37894;53.172;6.598;2023-03-20T18:41:27;7.90;99.90
51853;DHT22;37894;53.172;6.598;2023-03-20T18:43:52;8.00;99.90
51853;DHT22;37894;53.172;6.598;2023-03-20T18:46:21;8.50;99.90
51853;DHT22;37894;53.172;6.598;2023-03-20T18:48:48;8.20;99.90
51853;DHT22;37894;53.172;6.598;2023-03-20T18:56:18;8.50;99.90
51853;DHT22;37894;53.172;6.598;2023-03-20T18:58:45;8.80;99.90
51853;DHT22;37894;53.172;6.598;2023-03-20T19:01:12;8.50;99.90
51853;DHT22;37894;53.172;6.598;2023-03-20T19:03:39;8.20;99.90
51853;DHT22;37894;53.172;6.598;2023-03-20T19:06:14;8.50;99.90
51853;DHT22;37894;53.172;6.598;2023-03-20T19:08:41;9.20;99.90
51853;DHT22;37894;53.172;6.598;2023-03-20T19:11:08;9.10;99.90
51853;DHT22;37894;53.172;6.598;2023-03-20T19:13:45;8.50;99.90
51853;DHT22;37894;53.172;6.598;2023-03-20T19:16:26;9.00;99.90
51853;DHT22;37894;53.172;6.598;2023-03-20T19:18:53;8.00;99.90
51853;DHT22;37894;53.172;6.598;2023-03-20T19:21:19;8.40;99.90
51853;DHT22;37894;53.172;6.598;2023-03-20T19:23:54;8.60;99.90
51853;DHT22;37894;53.172;6.598;2023-03-20T19:26:22;8.50;99.90
51853;DHT22;37894;53.172;6.598;2023-03-20T19:28:49;8.70;99.90
51853;DHT22;37894;53.172;6.598;2023-03-20T19:31:15;9.20;99.90
51853;DHT22;37894;53.172;6.598;2023-03-20T19:33:41;9.40;99.90
51853;DHT22;37894;53.172;6.598;2023-03-20T19:36:27;8.50;99.90
51853;DHT22;37894;53.172;6.598;2023-03-20T19:38:54;8.70;99.90
51853;DHT22;37894;53.172;6.598;2023-03-20T19:41:20;8.70;99.90
51853;DHT22;37894;53.172;6.598;2023-03-20T19:43:47;8.40;99.90
51853;DHT22;37894;53.172;6.598;2023-03-20T19:46:13;8.50;99.90
51853;DHT22;37894;53.172;6.598;2023-03-20T19:48:42;8.70;99.90
51853;DHT22;37894;53.172;6.598;2023-03-20T19:53:41;8.10;99.90
51853;DHT22;37894;53.172;6.598;2023-03-20T19:56:09;8.50;99.90
51853;DHT22;37894;53.172;6.598;2023-03-20T20:05:54;8.60;99.90
51853;DHT22;37894;53.172;6.598;2023-03-20T20:08:20;8.40;99.90
51853;DHT22;37894;53.172;6.598;2023-03-20T20:10:48;8.50;99.90
51853;DHT22;37894;53.172;6.598;2023-03-20T20:13:23;8.50;99.90
51853;DHT22;37894;53.172;6.598;2023-03-20T20:18:17;8.50;99.90
51853;DHT22;37894;53.172;6.598;2023-03-20T20:20:43;8.90;99.90
51853;DHT22;37894;53.172;6.598;2023-03-20T20:23:15;7.80;99.90
51853;DHT22;37894;53.172;6.598;2023-03-20T20:25:41;8.40;99.90
51853;DHT22;37894;53.172;6.598;2023-03-20T20:28:09;8.30;99.90
51853;DHT22;37894;53.172;6.598;2023-03-20T20:35:28;8.60;99.90
51853;DHT22;37894;53.172;6.598;2023-03-20T20:40:21;8.80;99.90
51853;DHT22;37894;53.172;6.598;2023-03-20T20:42:48;8.90;99.90
51853;DHT22;37894;53.172;6.598;2023-03-20T20:45:18;8.20;99.90
51853;DHT22;37894;53.172;6.598;2023-03-20T20:47:44;8.70;99.90
51853;DHT22;37894;53.172;6.598;2023-03-20T20:50:12;8.90;99.90
51853;DHT22;37894;53.172;6.598;2023-03-20T20:52:39;8.70;99.90
51853;DHT22;37894;53.172;6.598;2023-03-20T20:55:07;9.40;99.90
51853;DHT22;37894;53.172;6.598;2023-03-20T20:57:33;8.40;99.90
51853;DHT22;37894;53.172;6.598;2023-03-20T20:59:59;8.50;99.90
51853;DHT22;37894;53.172;6.598;2023-03-20T21:02:26;8.70;99.90
51853;DHT22;37894;53.172;6.598;2023-03-20T21:04:52;8.70;99.90